Time;durP1;ratioP1;P1;durP2;ratioP2;P2;SDS_P1;SDS_P2;PMS_P1;PMS_P2;Temp;Humidity;BMP_temperature;BMP_pressure;BME280_temperature;BME280_humidity;BME280_pressure;Samples;Min_cycle;Max_cycle;Signal;HPM_P1;HPM_P2
2021/08/18 00:02:07;;;;;;;7.07;3.77;;;;;;;14.41;62.39;99785.69;154568;1093;103160;-77
2021/08/18 00:05:14;;;;;;;9.30;3.57;;;;;;;14.34;62.10;99786.45;154555;1098;103191;-76
2021/08/18 00:08:17;;;;;;;6.08;3.75;;;;;;;14.31;62.46;99783.31;154603;1093;103193;-76
2021/08/18 00:11:20;;;;;;;6.75;3.78;;;;;;;14.28;62.33;99786.36;154513;1098;103192;-76
2021/08/18 00:14:23;;;;;;;6.47;4.00;;;;;;;14.23;62.24;99794.16;154515;1093;103191;-76
2021/08/18 00:17:26;;;;;;;7.37;4.27;;;;;;;14.18;62.31;99788.52;154555;1098;103196;-75
2021/08/18 00:20:29;;;;;;;5.70;3.33;;;;;;;14.09;62.62;99785.95;154605;1093;103251;-75
2021/08/18 00:23:32;;;;;;;7.30;2.93;;;;;;;14.07;62.56;99781.80;154579;1098;103215;-75
2021/08/18 00:26:35;;;;;;;6.17;2.73;;;;;;;14.09;62.84;99785.13;154580;1093;104711;-75
2021/08/18 00:29:38;;;;;;;5.30;3.13;;;;;;;14.10;62.57;99790.28;154583;1093;103210;-76
2021/08/18 00:32:41;;;;;;;4.55;3.05;;;;;;;14.12;62.40;99792.78;154558;1098;103212;-76
2021/08/18 00:35:43;;;;;;;7.20;3.07;;;;;;;14.12;62.71;99790.92;154500;1098;103349;-79
2021/08/18 00:38:46;;;;;;;5.10;3.23;;;;;;;14.14;62.57;99788.06;154602;1098;103204;-79
2021/08/18 00:41:50;;;;;;;5.77;3.60;;;;;;;14.12;62.44;99793.61;154592;1098;103196;-76
2021/08/18 00:44:54;;;;;;;6.13;3.40;;;;;;;14.11;62.71;99791.14;154559;1098;103188;-77
2021/08/18 00:47:58;;;;;;;6.80;3.43;;;;;;;14.12;62.69;99795.47;154573;1098;103185;-77
2021/08/18 00:51:01;;;;;;;7.28;3.53;;;;;;;14.12;62.74;99790.10;154503;1098;103263;-79
2021/08/18 00:54:04;;;;;;;5.88;3.18;;;;;;;14.11;62.57;99793.81;154563;1093;103212;-76
2021/08/18 00:57:07;;;;;;;7.30;3.90;;;;;;;14.09;63.32;99796.69;154555;1098;103188;-79
2021/08/18 01:00:13;;;;;;;5.60;3.37;;;;;;;14.10;62.51;99801.02;154561;1093;103187;-78
2021/08/18 01:03:16;;;;;;;6.10;3.60;;;;;;;14.11;62.57;99799.19;154607;1098;103133;-79
2021/08/18 01:06:19;;;;;;;8.50;3.53;;;;;;;14.09;62.72;99807.41;154578;1098;103591;-79
2021/08/18 01:09:22;;;;;;;6.47;3.90;;;;;;;14.10;62.67;99802.88;154566;1098;103128;-77
2021/08/18 01:12:26;;;;;;;5.73;3.10;;;;;;;14.10;62.83;99802.88;154582;1093;103093;-77
2021/08/18 01:15:30;;;;;;;5.95;3.13;;;;;;;14.11;62.87;99799.19;154594;1098;103221;-77
2021/08/18 01:18:33;;;;;;;6.63;3.33;;;;;;;14.16;62.82;99799.44;154598;1098;103193;-77
2021/08/18 01:21:37;;;;;;;7.20;4.00;;;;;;;14.23;62.80;99796.84;154432;1098;103298;-78
2021/08/18 01:24:39;;;;;;;5.53;3.57;;;;;;;14.27;62.64;99793.59;154513;1098;103142;-76
2021/08/18 01:27:48;;;;;;;5.93;3.60;;;;;;;14.31;62.74;99794.88;154493;1098;103144;-76
2021/08/18 01:30:51;;;;;;;7.88;4.20;;;;;;;14.32;62.78;99793.86;154508;1093;103482;-77
2021/08/18 01:33:54;;;;;;;8.00;3.47;;;;;;;14.31;62.69;99792.19;154568;1098;103143;-76
2021/08/18 01:36:57;;;;;;;5.25;3.68;;;;;;;14.32;62.68;99793.04;154603;1098;103327;-77
2021/08/18 01:40:00;;;;;;;6.35;3.90;;;;;;;14.31;62.88;99784.13;154597;1098;103163;-78
2021/08/18 01:43:03;;;;;;;7.63;4.30;;;;;;;14.31;62.74;99783.31;154560;1098;103123;-77
2021/08/18 01:46:06;;;;;;;7.37;4.30;;;;;;;14.29;62.76;99782.67;154553;1098;103132;-79
2021/08/18 01:49:09;;;;;;;6.67;3.90;;;;;;;14.29;62.98;99786.17;154559;1098;103189;-81
2021/08/18 01:52:17;;;;;;;6.50;4.33;;;;;;;14.33;62.78;99778.58;154566;1098;103118;-78
2021/08/18 01:55:20;;;;;;;7.55;4.05;;;;;;;14.36;62.77;99777.36;154640;1093;103157;-79
2021/08/18 01:58:23;;;;;;;6.87;4.57;;;;;;;14.38;62.79;99773.48;154749;1098;103189;-80
2021/08/18 02:01:26;;;;;;;10.23;4.85;;;;;;;14.40;62.84;99771.45;154562;1094;103195;-78
2021/08/18 02:04:29;;;;;;;6.03;3.60;;;;;;;14.46;62.97;99770.68;154562;1098;103142;-80
2021/08/18 02:07:32;;;;;;;8.50;4.47;;;;;;;14.54;63.05;99775.92;154676;1098;103230;-80
2021/08/18 02:10:35;;;;;;;6.75;4.35;;;;;;;14.63;62.70;99781.22;154721;1092;103240;-80
2021/08/18 02:13:37;;;;;;;7.30;4.30;;;;;;;14.70;62.97;99776.72;154599;1093;103190;-80
2021/08/18 02:16:40;;;;;;;6.03;4.47;;;;;;;14.74;62.72;99775.31;154561;1098;103165;-82
2021/08/18 02:19:43;;;;;;;7.90;5.20;;;;;;;14.77;62.83;99772.26;154564;1098;103234;-80
2021/08/18 02:22:46;;;;;;;10.25;5.78;;;;;;;14.80;63.00;99774.57;154653;1093;103315;-80
2021/08/18 02:25:51;;;;;;;9.70;4.87;;;;;;;14.80;62.89;99776.41;154679;1098;103366;-80
2021/08/18 02:28:54;;;;;;;7.33;4.57;;;;;;;14.79;62.86;99780.95;154588;1098;103121;-81
2021/08/18 02:31:56;;;;;;;8.83;5.00;;;;;;;14.79;62.75;99774.76;154577;1098;104708;-77
2021/08/18 02:34:59;;;;;;;7.47;5.03;;;;;;;14.78;62.72;99775.77;154561;1098;103122;-82
2021/08/18 02:38:04;;;;;;;6.90;4.50;;;;;;;14.76;63.15;99781.35;154624;1094;103100;-80
2021/08/18 02:41:07;;;;;;;6.25;4.60;;;;;;;14.74;62.91;99769.94;154573;1098;103156;-80
2021/08/18 02:44:09;;;;;;;7.77;5.27;;;;;;;14.73;63.29;99765.61;154545;1098;103147;-81
2021/08/18 02:47:12;;;;;;;7.60;5.27;;;;;;;14.73;63.04;99760.23;154623;1098;103120;-82
2021/08/18 02:50:17;;;;;;;9.20;5.00;;;;;;;14.72;62.72;99759.41;154652;1098;103560;-78
2021/08/18 02:53:20;;;;;;;9.55;5.50;;;;;;;14.72;62.69;99763.94;154858;1098;103503;-79
2021/08/18 02:56:23;;;;;;;7.70;4.23;;;;;;;14.71;62.74;99759.60;154651;1098;103272;-79
2021/08/18 02:59:26;;;;;;;7.13;4.30;;;;;;;14.73;63.00;99760.23;154630;1093;103591;-80
2021/08/18 03:02:28;;;;;;;10.10;4.80;;;;;;;14.79;63.20;99770.20;154601;1093;103093;-78
2021/08/18 03:05:31;;;;;;;9.43;4.83;;;;;;;14.82;62.75;99767.15;154827;1098;103211;-74
2021/08/18 03:08:34;;;;;;;8.00;4.60;;;;;;;14.85;63.04;99764.06;154628;1098;103119;-74
2021/08/18 03:11:37;;;;;;;6.47;4.50;;;;;;;14.88;62.71;99755.63;154829;1093;103203;-74
2021/08/18 03:14:40;;;;;;;9.20;5.35;;;;;;;14.90;63.01;99761.63;154571;1098;103193;-75
2021/08/18 03:17:42;;;;;;;8.27;5.10;;;;;;;14.89;63.25;99765.33;154636;1093;103212;-76
2021/08/18 03:20:45;;;;;;;7.43;5.08;;;;;;;14.88;63.06;99757.48;154530;1093;103184;-75
2021/08/18 03:23:48;;;;;;;7.70;5.00;;;;;;;14.86;63.06;99763.05;154546;1093;103209;-76
2021/08/18 03:26:51;;;;;;;6.70;5.07;;;;;;;14.83;62.80;99758.05;154599;1093;103185;-76
2021/08/18 03:29:54;;;;;;;7.95;5.05;;;;;;;14.77;63.02;99753.45;154573;1093;103259;-75
2021/08/18 03:32:57;;;;;;;7.23;5.33;;;;;;;14.71;63.11;99744.31;154613;1093;103120;-75
2021/08/18 03:36:00;;;;;;;7.20;5.37;;;;;;;14.66;62.85;99753.97;154549;1093;103124;-75
2021/08/18 03:39:02;;;;;;;8.83;5.30;;;;;;;14.62;63.12;99758.88;154561;1098;103284;-76
2021/08/18 03:42:07;;;;;;;9.30;4.83;;;;;;;14.58;63.42;99762.16;154581;1093;103144;-76
2021/08/18 03:45:12;;;;;;;6.27;3.93;;;;;;;14.51;63.29;99770.09;154471;1098;103393;-76
2021/08/18 03:48:15;;;;;;;8.97;4.70;;;;;;;14.48;63.45;99768.63;154582;1093;103156;-76
2021/08/18 03:51:18;;;;;;;7.47;4.87;;;;;;;14.49;63.19;99770.31;154567;1098;103131;-75
2021/08/18 03:54:21;;;;;;;8.10;4.97;;;;;;;14.52;63.25;99769.91;154517;1093;103157;-76
2021/08/18 03:57:23;;;;;;;9.08;5.40;;;;;;;14.57;63.51;99779.27;154577;1098;103589;-76
2021/08/18 04:00:26;;;;;;;8.27;5.63;;;;;;;14.62;63.39;99783.05;154558;1098;103212;-76
2021/08/18 04:03:32;;;;;;;7.97;5.10;;;;;;;14.67;63.51;99783.32;154573;1098;103128;-76
2021/08/18 04:06:35;;;;;;;7.95;5.55;;;;;;;14.71;63.27;99781.91;154556;1093;103190;-76
2021/08/18 04:09:38;;;;;;;9.33;5.40;;;;;;;14.77;63.36;99783.00;154599;1098;103188;-76
2021/08/18 04:12:53;;;;;;;9.80;6.17;;;;;;;14.80;63.69;99782.63;154585;1093;103123;-74
2021/08/18 04:15:55;;;;;;;11.30;5.30;;;;;;;14.82;63.33;99787.78;154560;1093;103270;-76
2021/08/18 04:18:58;;;;;;;8.83;5.67;;;;;;;14.85;63.75;99798.98;154546;1093;103210;-73
2021/08/18 04:22:01;;;;;;;8.77;5.37;;;;;;;14.90;63.47;99804.61;154642;1093;103142;-73
2021/08/18 04:25:05;;;;;;;8.68;5.25;;;;;;;14.94;63.34;99802.38;154591;1093;103113;-76
2021/08/18 04:28:08;;;;;;;9.67;4.80;;;;;;;15.01;63.39;99811.34;154551;1098;103116;-76
2021/08/18 04:31:10;;;;;;;7.07;4.13;;;;;;;15.10;63.89;99806.64;154586;1098;103243;-76
2021/08/18 04:34:13;;;;;;;5.97;4.63;;;;;;;15.22;63.78;99815.86;154602;1098;103134;-75
2021/08/18 04:37:16;;;;;;;8.17;5.13;;;;;;;15.35;63.81;99816.98;154556;1098;103126;-76
2021/08/18 04:40:21;;;;;;;8.27;5.20;;;;;;;15.45;63.68;99817.46;154586;1098;103125;-75
2021/08/18 04:43:23;;;;;;;7.83;5.17;;;;;;;15.53;63.50;99822.72;154668;1093;103224;-74
2021/08/18 04:46:27;;;;;;;9.73;5.67;;;;;;;15.60;63.23;99815.50;154672;1098;103390;-75
2021/08/18 04:49:30;;;;;;;9.83;5.28;;;;;;;15.63;63.53;99822.37;154646;1093;103163;-75
2021/08/18 04:52:32;;;;;;;9.67;5.73;;;;;;;15.67;63.34;99821.77;154576;1098;103124;-75
2021/08/18 04:55:35;;;;;;;8.20;5.10;;;;;;;15.71;63.24;99819.52;154522;1093;103128;-76
2021/08/18 04:58:38;;;;;;;7.90;4.85;;;;;;;15.77;63.38;99826.00;154560;1098;103117;-75
2021/08/18 05:01:41;;;;;;;7.27;5.03;;;;;;;15.78;63.64;99825.81;154591;1098;103240;-76
2021/08/18 05:04:43;;;;;;;7.77;5.30;;;;;;;15.83;63.21;99835.97;154621;1098;103137;-76
2021/08/18 05:07:46;;;;;;;9.07;5.80;;;;;;;15.86;63.46;99840.96;154686;1092;103221;-75
2021/08/18 05:10:49;;;;;;;9.80;5.43;;;;;;;15.90;63.57;99834.98;154578;1098;103128;-75
2021/08/18 05:13:52;;;;;;;7.80;5.30;;;;;;;15.94;63.60;99829.21;154558;1093;103141;-75
2021/08/18 05:16:55;;;;;;;8.50;5.20;;;;;;;15.99;63.35;99841.02;154528;1093;103106;-76
2021/08/18 05:19:57;;;;;;;8.07;5.50;;;;;;;16.03;63.28;99836.06;154553;1098;103137;-75
2021/08/18 05:23:00;;;;;;;7.53;5.00;;;;;;;16.07;63.36;99840.88;154583;1093;103188;-75
2021/08/18 05:26:03;;;;;;;7.70;4.43;;;;;;;16.17;63.56;99836.98;154512;1098;103131;-76
2021/08/18 05:29:06;;;;;;;10.17;5.43;;;;;;;16.30;63.63;99847.79;154564;1093;103180;-76
2021/08/18 05:32:10;;;;;;;11.53;5.73;;;;;;;16.42;63.50;99846.20;154625;1098;103474;-75
2021/08/18 05:35:15;;;;;;;7.97;5.00;;;;;;;16.60;63.15;99851.02;154544;1098;103188;-74
2021/08/18 05:38:17;;;;;;;7.75;5.78;;;;;;;16.76;62.93;99846.30;154589;1098;103160;-76
2021/08/18 05:41:20;;;;;;;8.70;5.73;;;;;;;16.85;63.04;99854.02;154533;1093;103154;-76
2021/08/18 05:44:23;;;;;;;9.20;6.07;;;;;;;16.92;63.09;99850.50;154543;1093;103148;-76
2021/08/18 05:47:26;;;;;;;8.55;6.10;;;;;;;16.99;62.64;99856.73;154613;1093;103120;-74
2021/08/18 05:50:28;;;;;;;7.97;5.33;;;;;;;17.07;62.56;99859.23;154618;1098;103509;-73
2021/08/18 05:53:31;;;;;;;9.37;5.43;;;;;;;17.12;62.68;99856.76;154638;1098;103124;-74
2021/08/18 05:56:34;;;;;;;8.27;6.20;;;;;;;17.19;62.75;99857.61;154615;1094;103131;-74
2021/08/18 05:59:37;;;;;;;8.77;6.20;;;;;;;17.25;62.60;99851.38;154677;1093;103125;-75
2021/08/18 06:02:39;;;;;;;9.88;6.70;;;;;;;17.31;62.67;99855.12;154616;1093;103187;-72
2021/08/18 06:05:42;;;;;;;8.30;6.40;;;;;;;17.37;62.55;99851.59;154624;1098;103212;-74
2021/08/18 06:08:45;;;;;;;8.77;6.23;;;;;;;17.42;62.51;99850.98;154596;1093;103486;-75
2021/08/18 06:11:48;;;;;;;9.20;6.03;;;;;;;17.44;62.16;99854.30;154609;1098;103124;-75
2021/08/18 06:14:50;;;;;;;8.10;5.87;;;;;;;17.50;62.49;99850.77;154571;1093;103186;-73
2021/08/18 06:17:53;;;;;;;9.93;5.83;;;;;;;17.56;62.39;99846.41;154610;1093;103220;-74
2021/08/18 06:20:56;;;;;;;9.63;6.10;;;;;;;17.61;62.21;99854.68;154683;1093;103125;-74
2021/08/18 06:24:03;;;;;;;10.63;6.13;;;;;;;17.60;61.96;99848.47;154591;1093;103187;-73
2021/08/18 06:27:07;;;;;;;8.25;5.70;;;;;;;17.62;62.10;99845.56;154545;1098;103244;-74
2021/08/18 06:30:11;;;;;;;11.57;6.37;;;;;;;17.64;62.06;99844.30;154578;1098;103585;-75
2021/08/18 06:33:14;;;;;;;8.10;5.80;;;;;;;17.65;61.96;99854.08;154593;1098;103111;-74
2021/08/18 06:36:17;;;;;;;9.60;6.10;;;;;;;17.62;61.99;99850.95;154526;1098;103144;-76
2021/08/18 06:39:19;;;;;;;9.67;6.33;;;;;;;17.52;61.77;99851.38;154585;1098;103212;-75
2021/08/18 06:42:22;;;;;;;9.67;6.00;;;;;;;17.50;61.77;99848.06;154505;1098;103285;-75
2021/08/18 06:45:25;;;;;;;8.80;5.80;;;;;;;17.53;61.92;99842.23;154565;1093;103600;-74
2021/08/18 06:48:28;;;;;;;10.40;6.40;;;;;;;17.58;61.68;99837.05;154579;1098;103136;-75
2021/08/18 06:51:31;;;;;;;9.23;5.65;;;;;;;17.65;61.81;99848.67;154738;1093;103250;-74
2021/08/18 06:54:33;;;;;;;10.87;5.80;;;;;;;17.70;61.66;99847.22;154533;1093;103116;-74
2021/08/18 06:57:36;;;;;;;9.63;5.97;;;;;;;17.79;61.69;99840.56;154553;1098;103188;-75
2021/08/18 07:00:39;;;;;;;8.20;5.67;;;;;;;17.92;60.82;99842.41;154543;1093;103254;-75
2021/08/18 07:03:42;;;;;;;8.60;5.98;;;;;;;17.97;61.30;99835.34;154578;1093;103160;-75
2021/08/18 07:06:44;;;;;;;8.60;6.10;;;;;;;18.02;61.03;99830.15;154553;1098;103569;-75
2021/08/18 07:09:47;;;;;;;8.90;5.75;;;;;;;18.05;61.04;99829.73;154557;1093;103249;-75
2021/08/18 07:12:50;;;;;;;8.33;5.90;;;;;;;18.08;60.79;99833.05;154641;1093;103138;-75
2021/08/18 07:15:52;;;;;;;10.08;5.83;;;;;;;18.08;60.81;99830.35;154600;1098;103190;-75
2021/08/18 07:18:55;;;;;;;9.03;5.70;;;;;;;18.07;60.21;99834.08;154570;1098;103484;-73
2021/08/18 07:21:58;;;;;;;9.30;5.70;;;;;;;18.10;60.40;99844.47;154570;1098;103189;-75
2021/08/18 07:25:01;;;;;;;9.67;5.73;;;;;;;18.15;60.59;99852.73;154592;1098;103122;-75
2021/08/18 07:28:04;;;;;;;7.60;5.40;;;;;;;18.22;59.98;99856.25;154571;1093;103176;-74
2021/08/18 07:31:07;;;;;;;8.85;5.38;;;;;;;18.31;59.81;99846.88;154573;1093;103154;-74
2021/08/18 07:34:10;;;;;;;9.03;5.57;;;;;;;18.37;60.43;99840.61;154498;1093;103311;-74
2021/08/18 07:37:12;;;;;;;10.07;5.80;;;;;;;18.37;60.43;99848.72;154583;1098;103116;-74
2021/08/18 07:40:15;;;;;;;10.97;6.00;;;;;;;18.41;60.32;99847.23;154683;1098;103492;-74
2021/08/18 07:43:18;;;;;;;8.17;5.37;;;;;;;18.48;60.27;99857.22;154580;1098;103117;-75
2021/08/18 07:46:21;;;;;;;9.00;6.00;;;;;;;18.55;60.37;99847.19;154542;1093;103163;-75
2021/08/18 07:49:23;;;;;;;7.87;5.57;;;;;;;18.66;60.31;99853.79;154582;1093;103124;-75
2021/08/18 07:52:26;;;;;;;8.47;5.63;;;;;;;18.75;60.16;99855.20;154577;1093;103569;-75
2021/08/18 07:55:29;;;;;;;9.25;5.60;;;;;;;19.06;59.96;99850.88;154618;1098;103187;-75
2021/08/18 07:58:32;;;;;;;8.50;5.50;;;;;;;19.34;59.71;99853.16;154594;1098;103169;-75
2021/08/18 08:01:35;;;;;;;8.10;5.70;;;;;;;19.55;59.65;99841.11;154587;1093;103509;-75
2021/08/18 08:04:38;;;;;;;11.25;6.20;;;;;;;19.75;59.64;99838.27;154581;1093;103128;-75
2021/08/18 08:07:40;;;;;;;8.17;5.77;;;;;;;19.95;58.95;99838.87;154636;1098;103272;-73
2021/08/18 08:10:43;;;;;;;7.98;5.83;;;;;;;20.15;58.99;99843.23;154457;1093;103480;-75
2021/08/18 08:13:46;;;;;;;8.47;5.53;;;;;;;20.20;59.00;99832.55;154433;1093;103196;-75
2021/08/18 08:16:49;;;;;;;9.23;6.03;;;;;;;20.33;58.92;99839.70;154524;1098;103519;-75
2021/08/18 08:19:51;;;;;;;9.87;5.33;;;;;;;20.47;58.67;99840.36;154551;1093;103125;-76
2021/08/18 08:22:54;;;;;;;8.23;6.07;;;;;;;20.57;58.16;99844.19;154626;1098;103124;-75
2021/08/18 08:25:57;;;;;;;9.53;5.90;;;;;;;20.50;57.71;99842.63;154560;1093;103174;-75
2021/08/18 08:29:00;;;;;;;7.53;5.80;;;;;;;20.45;58.40;99853.31;154617;1093;103121;-76
2021/08/18 08:32:03;;;;;;;6.93;5.33;;;;;;;20.54;58.30;99857.37;154648;1093;103107;-76
2021/08/18 08:35:09;;;;;;;8.57;5.70;;;;;;;20.68;58.04;99853.45;154595;1093;103110;-75
2021/08/18 08:38:13;;;;;;;8.78;5.18;;;;;;;20.88;56.94;99844.20;154562;1098;103180;-75
2021/08/18 08:41:17;;;;;;;6.93;5.17;;;;;;;21.06;57.47;99846.86;154612;1098;103127;-75
2021/08/18 08:44:23;;;;;;;7.57;5.40;;;;;;;21.24;56.51;99839.70;154564;1093;103272;-75
2021/08/18 08:47:26;;;;;;;8.83;5.20;;;;;;;21.19;55.52;99837.70;154575;1098;103124;-73
2021/08/18 08:50:30;;;;;;;8.20;5.35;;;;;;;21.16;56.40;99844.39;154656;1093;103125;-76
2021/08/18 08:53:33;;;;;;;6.65;4.58;;;;;;;21.15;55.96;99841.91;154567;1094;103250;-74
2021/08/18 08:56:36;;;;;;;6.48;4.85;;;;;;;21.29;55.41;99835.22;154578;1093;103211;-74
2021/08/18 08:59:39;;;;;;;6.90;4.95;;;;;;;21.40;56.18;99838.17;154538;1093;103278;-75
2021/08/18 09:02:42;;;;;;;9.23;5.10;;;;;;;21.31;55.93;99840.42;154571;1093;103116;-75
2021/08/18 09:05:46;;;;;;;7.23;4.70;;;;;;;21.16;55.25;99833.54;154526;1098;103149;-76
2021/08/18 09:08:50;;;;;;;7.63;5.08;;;;;;;21.09;54.15;99831.99;154610;1098;103110;-76
2021/08/18 09:12:03;;;;;;;7.13;4.78;;;;;;;20.86;55.18;99832.75;154583;1098;103192;-75
2021/08/18 09:15:16;;;;;;;8.60;5.30;;;;;;;20.64;54.81;99827.03;154619;1098;103272;-76
2021/08/18 09:18:36;;;;;;;6.90;4.30;;;;;;;20.59;55.09;99833.98;154535;1098;103187;-76
2021/08/18 09:21:41;;;;;;;6.20;4.50;;;;;;;20.58;54.89;99828.75;154044;1093;103132;-74
2021/08/18 09:24:44;;;;;;;7.80;5.13;;;;;;;20.58;54.90;99829.56;154063;1099;103477;-75
2021/08/18 09:27:49;;;;;;;7.10;4.57;;;;;;;20.52;54.07;99826.95;154573;1098;103205;-76
2021/08/18 09:30:58;;;;;;;7.20;4.90;;;;;;;20.54;54.73;99825.66;154612;1098;103314;-75
2021/08/18 09:34:01;;;;;;;6.83;4.67;;;;;;;20.73;54.41;99821.05;154577;1098;103143;-75
2021/08/18 09:37:11;;;;;;;6.20;4.40;;;;;;;20.90;54.28;99831.23;154572;1098;103544;-76
2021/08/18 09:40:23;;;;;;;7.53;4.30;;;;;;;21.04;54.04;99832.70;154579;1093;103132;-74
2021/08/18 09:43:27;;;;;;;5.53;4.20;;;;;;;21.14;53.27;99834.84;154634;1098;103178;-75
2021/08/18 09:46:34;;;;;;;9.80;4.80;;;;;;;21.14;53.68;99835.66;154641;1093;103274;-74
2021/08/18 09:49:37;;;;;;;5.73;4.10;;;;;;;21.24;53.70;99829.66;154638;1098;103121;-75
2021/08/18 09:52:40;;;;;;;5.80;3.90;;;;;;;21.37;53.70;99829.45;154565;1098;103140;-76
2021/08/18 09:55:55;;;;;;;6.47;4.50;;;;;;;21.57;53.17;99817.44;154595;1098;103118;-74
2021/08/18 09:58:58;;;;;;;6.35;4.10;;;;;;;21.66;53.34;99821.45;154329;1098;103119;-76
2021/08/18 10:02:01;;;;;;;6.37;4.17;;;;;;;21.77;52.85;99827.96;154602;1093;103285;-75
2021/08/18 10:05:04;;;;;;;6.63;4.47;;;;;;;21.63;52.67;99827.35;154520;1093;103192;-73
2021/08/18 10:08:08;;;;;;;7.30;4.50;;;;;;;21.50;53.21;99825.72;154177;1098;103151;-76
2021/08/18 10:11:14;;;;;;;5.50;4.05;;;;;;;21.38;52.77;99820.25;153942;1101;103265;-76
2021/08/18 10:14:17;;;;;;;5.75;4.00;;;;;;;21.48;52.96;99813.42;154081;1101;103184;-80
2021/08/18 10:17:21;;;;;;;6.17;4.17;;;;;;;21.49;51.95;99817.80;154066;1093;103281;-78
2021/08/18 10:20:24;;;;;;;5.27;4.10;;;;;;;21.40;51.92;99814.56;153969;1093;103158;-78
2021/08/18 10:23:48;;;;;;;6.27;4.30;;;;;;;21.29;51.42;99815.41;153997;1101;103189;-79
2021/08/18 10:26:52;;;;;;;5.33;3.80;;;;;;;21.23;52.03;99816.32;153993;1101;103126;-79
2021/08/18 10:30:22;;;;;;;6.65;3.93;;;;;;;21.27;51.90;99818.35;154044;1101;103119;-79
2021/08/18 10:34:01;;;;;;;5.60;4.07;;;;;;;21.26;51.20;99815.87;153973;1093;103586;-78
2021/08/18 10:37:07;;;;;;;6.15;4.30;;;;;;;21.02;51.45;99813.13;153943;1101;103218;-79
2021/08/18 10:40:14;;;;;;;6.80;3.88;;;;;;;21.20;51.94;99812.20;154046;1100;103079;-79
2021/08/18 10:43:49;;;;;;;6.73;4.28;;;;;;;21.43;51.45;99797.83;153956;1101;103129;-78
2021/08/18 10:47:27;;;;;;;4.40;3.77;;;;;;;21.51;50.65;99792.06;153923;1101;103189;-77
2021/08/18 10:50:43;;;;;;;7.10;3.70;;;;;;;21.35;50.99;99807.14;153930;1101;103302;-78
2021/08/18 10:53:45;;;;;;;5.00;3.90;;;;;;;21.28;51.52;99802.89;154023;1101;103101;-79
2021/08/18 10:56:56;;;;;;;6.10;3.90;;;;;;;21.21;51.32;99807.59;153969;1101;103572;-78
2021/08/18 11:00:09;;;;;;;4.13;3.48;;;;;;;21.08;50.83;99801.33;153963;1101;103489;-77
2021/08/18 11:03:26;;;;;;;7.43;3.85;;;;;;;21.01;51.24;99797.89;153997;1101;103238;-78
2021/08/18 11:06:50;;;;;;;5.20;3.48;;;;;;;20.95;51.81;99798.83;153908;1101;103288;-78
2021/08/18 11:10:02;;;;;;;5.45;3.60;;;;;;;20.92;51.26;99801.99;153975;1101;103190;-77
2021/08/18 11:13:07;;;;;;;5.27;3.43;;;;;;;21.04;51.82;99799.33;153932;1101;103145;-78
2021/08/18 11:16:13;;;;;;;5.45;3.50;;;;;;;21.18;51.60;99804.29;153949;1093;103563;-78
2021/08/18 11:19:15;;;;;;;4.70;3.50;;;;;;;21.15;50.91;99793.92;154000;1093;103560;-78
2021/08/18 11:22:19;;;;;;;4.50;3.55;;;;;;;21.25;51.23;99797.92;153956;1093;103219;-79
2021/08/18 11:25:22;;;;;;;5.07;3.37;;;;;;;21.34;50.56;99793.80;154038;1101;103126;-78
2021/08/18 11:28:26;;;;;;;5.70;3.87;;;;;;;21.46;51.30;99786.53;154068;1094;103188;-78
2021/08/18 11:31:42;;;;;;;10.03;3.50;;;;;;;21.58;50.83;99791.95;154417;1098;103209;-79
2021/08/18 11:34:49;;;;;;;7.30;3.40;;;;;;;21.66;50.53;99791.59;153984;1101;103189;-78
2021/08/18 11:38:03;;;;;;;7.55;3.60;;;;;;;21.71;50.41;99790.87;154015;1101;103387;-79
2021/08/18 11:41:06;;;;;;;5.98;3.35;;;;;;;21.81;50.51;99790.30;154012;1093;103130;-77
2021/08/18 11:44:09;;;;;;;5.60;3.13;;;;;;;21.93;50.18;99783.75;154005;1101;103121;-78
2021/08/18 11:47:15;;;;;;;7.38;3.70;;;;;;;21.91;49.52;99787.78;154011;1093;103129;-77
2021/08/18 11:50:18;;;;;;;4.13;3.50;;;;;;;21.80;49.60;99794.88;153990;1101;103203;-77
2021/08/18 11:53:21;;;;;;;11.37;6.03;;;;;;;21.69;50.01;99787.56;153962;1101;103346;-78
2021/08/18 11:56:28;;;;;;;6.63;4.77;;;;;;;21.63;49.65;99792.05;154000;1101;103153;-77
2021/08/18 11:59:32;;;;;;;4.53;3.40;;;;;;;21.55;49.80;99789.70;154025;1093;103189;-78
2021/08/18 12:02:36;;;;;;;5.35;3.30;;;;;;;21.47;49.75;99793.60;153974;1101;103482;-78
2021/08/18 12:05:39;;;;;;;4.40;2.97;;;;;;;21.34;49.38;99800.08;154040;1101;103122;-78
2021/08/18 12:08:42;;;;;;;4.03;2.80;;;;;;;21.26;49.35;99805.83;153989;1101;103214;-78
2021/08/18 12:11:45;;;;;;;4.33;2.77;;;;;;;21.32;49.17;99804.06;154089;1099;103110;-78
2021/08/18 12:14:49;;;;;;;5.23;2.60;;;;;;;21.36;49.62;99795.24;153992;1101;103142;-78
2021/08/18 12:17:52;;;;;;;6.75;2.65;;;;;;;21.58;49.66;99796.57;154206;1099;103123;-78
2021/08/18 12:21:14;;;;;;;5.03;2.80;;;;;;;21.82;49.53;99792.75;153996;1101;103122;-78
2021/08/18 12:24:18;;;;;;;3.90;3.20;;;;;;;22.02;49.40;99791.52;153978;1101;103292;-78
2021/08/18 12:27:24;;;;;;;6.10;2.90;;;;;;;22.11;49.05;99790.09;153982;1101;103126;-79
2021/08/18 12:30:27;;;;;;;3.47;2.97;;;;;;;22.17;49.61;99794.55;154031;1093;103147;-78
2021/08/18 12:33:31;;;;;;;4.07;3.10;;;;;;;22.21;48.98;99798.47;153969;1101;103119;-78
2021/08/18 12:36:34;;;;;;;7.95;3.10;;;;;;;22.13;49.11;99801.55;153946;1093;103189;-78
2021/08/18 12:39:44;;;;;;;3.57;2.63;;;;;;;22.11;49.16;99795.52;153953;1101;103662;-77
2021/08/18 12:42:55;;;;;;;4.40;2.80;;;;;;;22.05;48.59;99808.17;153997;1101;103568;-79
2021/08/18 12:45:58;;;;;;;8.60;6.43;;;;;;;22.08;49.00;99807.71;154024;1101;103221;-77
2021/08/18 12:49:28;;;;;;;3.83;3.13;;;;;;;22.15;48.48;99804.84;153950;1101;103122;-78
2021/08/18 12:52:31;;;;;;;3.40;2.30;;;;;;;22.23;48.71;99798.20;153965;1101;103528;-78
2021/08/18 12:55:34;;;;;;;8.63;2.80;;;;;;;22.28;48.60;99796.45;153951;1101;103221;-78
2021/08/18 12:58:38;;;;;;;5.37;2.67;;;;;;;22.31;48.67;99790.54;153937;1101;103569;-78
2021/08/18 13:01:41;;;;;;;3.83;2.60;;;;;;;22.25;47.87;99787.95;153962;1101;103188;-78
2021/08/18 13:04:43;;;;;;;3.93;2.70;;;;;;;22.11;48.46;99784.66;153962;1093;103107;-78
2021/08/18 13:07:46;;;;;;;4.33;2.73;;;;;;;22.07;48.23;99776.16;153939;1093;103129;-79
2021/08/18 13:10:49;;;;;;;4.30;3.03;;;;;;;22.16;48.39;99782.05;153937;1101;103298;-79
2021/08/18 13:13:53;;;;;;;4.30;2.47;;;;;;;22.23;47.91;99782.75;153974;1101;103138;-79
2021/08/18 13:16:56;;;;;;;5.03;2.77;;;;;;;22.30;47.89;99788.88;154000;1101;103506;-78
2021/08/18 13:19:59;;;;;;;4.33;2.43;;;;;;;22.33;47.99;99780.25;153968;1093;103184;-78
2021/08/18 13:23:02;;;;;;;3.43;2.60;;;;;;;22.37;47.92;99785.22;154000;1101;103208;-78
2021/08/18 13:26:05;;;;;;;3.10;2.50;;;;;;;22.39;47.29;99770.30;153989;1093;103255;-78
2021/08/18 13:29:08;;;;;;;5.17;2.57;;;;;;;22.29;47.74;99776.37;154440;1093;103125;-77
2021/08/18 13:32:13;;;;;;;4.73;2.47;;;;;;;22.22;47.25;99775.65;154578;1093;103129;-76
2021/08/18 13:35:16;;;;;;;3.00;2.35;;;;;;;22.22;47.30;99770.21;154395;1098;103155;-78
2021/08/18 13:38:18;;;;;;;3.37;2.40;;;;;;;22.26;47.12;99782.27;153927;1093;103188;-78
2021/08/18 13:41:21;;;;;;;4.03;2.40;;;;;;;22.11;46.94;99785.50;153991;1101;103291;-78
2021/08/18 13:44:24;;;;;;;3.53;2.23;;;;;;;21.99;47.17;99775.72;154011;1101;103144;-78
2021/08/18 13:47:26;;;;;;;2.93;2.47;;;;;;;21.96;47.05;99777.86;153938;1101;103179;-78
2021/08/18 13:50:29;;;;;;;3.60;2.60;;;;;;;21.99;47.24;99773.01;153910;1094;103132;-78
2021/08/18 13:53:32;;;;;;;5.77;2.47;;;;;;;22.10;47.16;99775.69;154033;1093;103192;-78
2021/08/18 13:56:37;;;;;;;4.47;2.47;;;;;;;22.24;46.49;99776.23;154149;1093;103120;-76
2021/08/18 13:59:40;;;;;;;3.53;2.07;;;;;;;22.39;46.83;99773.02;154203;1093;103473;-79
2021/08/18 14:02:44;;;;;;;3.90;2.48;;;;;;;22.49;46.10;99775.92;154106;1101;103119;-79
2021/08/18 14:05:47;;;;;;;4.33;2.50;;;;;;;22.40;45.58;99782.81;154094;1101;103122;-81
2021/08/18 14:08:49;;;;;;;4.40;2.50;;;;;;;22.21;46.76;99779.45;154068;1101;103124;-79